Time;durP1;ratioP1;P1;durP2;ratioP2;P2;SDS_P1;SDS_P2;PMS_P1;PMS_P2;Temp;Humidity;BMP_temperature;BMP_pressure;BME280_temperature;BME280_humidity;BME280_pressure;Samples;Min_cycle;Max_cycle;Signal;HPM_P1;HPM_P2
2023/04/23 00:01:18;;;;;;;7.65;3.47;;;;;;;;;;5073972;28;20183;-37
2023/04/23 00:03:45;;;;;;;5.93;3.40;;;;;;;;;;5073781;28;20243;-36
2023/04/23 00:06:13;;;;;;;6.47;3.30;;;;;;;;;;5073882;28;20204;-35
2023/04/23 00:08:40;;;;;;;10.50;4.85;;;;;;;;;;5073539;28;20660;-35
2023/04/23 00:11:08;;;;;;;6.70;3.33;;;;;;;;;;5073705;28;20203;-35
2023/04/23 00:13:36;;;;;;;6.60;3.20;;;;;;;;;;5073660;28;20215;-35
2023/04/23 00:16:04;;;;;;;6.45;3.58;;;;;;;;;;5073624;28;20203;-36
2023/04/23 00:18:31;;;;;;;8.52;3.47;;;;;;;;;;5073194;28;20322;-36
2023/04/23 00:20:58;;;;;;;6.32;3.83;;;;;;;;;;5073371;28;20239;-36
2023/04/23 00:23:27;;;;;;;5.97;3.45;;;;;;;;;;5073209;28;20745;-35
2023/04/23 00:25:54;;;;;;;6.05;3.22;;;;;;;;;;5073515;28;20203;-36
2023/04/23 00:28:21;;;;;;;4.90;2.88;;;;;;;;;;5073341;28;20605;-35
2023/04/23 00:30:48;;;;;;;6.68;3.70;;;;;;;;;;5073288;28;20203;-35
2023/04/23 00:33:15;;;;;;;6.60;3.40;;;;;;;;;;5073184;28;20235;-35
2023/04/23 00:35:43;;;;;;;9.43;4.25;;;;;;;;;;5073184;28;20568;-35
2023/04/23 00:38:10;;;;;;;7.75;3.60;;;;;;;;;;5073200;28;20249;-36
2023/04/23 00:40:37;;;;;;;5.88;2.95;;;;;;;;;;5073479;28;20204;-35
2023/04/23 00:43:04;;;;;;;6.90;3.60;;;;;;;;;;5073398;28;20227;-35
2023/04/23 00:45:32;;;;;;;5.93;2.70;;;;;;;;;;5042051;28;20203;-35
2023/04/23 00:48:00;;;;;;;5.90;2.97;;;;;;;;;;5059408;28;20199;-35
2023/04/23 00:50:27;;;;;;;6.72;3.05;;;;;;;;;;5060018;28;20203;-35
2023/04/23 00:52:54;;;;;;;6.75;3.25;;;;;;;;;;5059659;28;20202;-35
2023/04/23 00:55:21;;;;;;;5.82;2.60;;;;;;;;;;5077312;28;20245;-35
2023/04/23 00:57:49;;;;;;;7.75;3.15;;;;;;;;;;5059294;28;20195;-35
2023/04/23 01:00:17;;;;;;;4.35;2.53;;;;;;;;;;5059245;28;20682;-36
2023/04/23 01:02:44;;;;;;;5.65;3.17;;;;;;;;;;5059613;28;20230;-36
2023/04/23 01:05:13;;;;;;;5.70;2.83;;;;;;;;;;5076821;28;20199;-35
2023/04/23 01:07:42;;;;;;;6.20;3.13;;;;;;;;;;5059273;28;20723;-35
2023/04/23 01:10:11;;;;;;;6.55;3.15;;;;;;;;;;5077425;28;20545;-35
2023/04/23 01:12:38;;;;;;;6.47;2.75;;;;;;;;;;5077093;28;20561;-35
2023/04/23 01:15:07;;;;;;;3.63;2.33;;;;;;;;;;5077008;28;20214;-35
2023/04/23 01:17:34;;;;;;;5.28;2.13;;;;;;;;;;5059334;28;20195;-35
2023/04/23 01:20:03;;;;;;;4.28;2.30;;;;;;;;;;5076512;28;20235;-35
2023/04/23 01:22:35;;;;;;;4.40;2.72;;;;;;;;;;5076932;28;20211;-35
2023/04/23 01:25:03;;;;;;;3.35;2.17;;;;;;;;;;5076532;28;20191;-35
2023/04/23 01:27:31;;;;;;;4.82;2.15;;;;;;;;;;5058624;28;20592;-35
2023/04/23 01:30:00;;;;;;;4.55;2.25;;;;;;;;;;5058991;28;20260;-35
2023/04/23 01:32:27;;;;;;;5.60;2.40;;;;;;;;;;5059086;28;20227;-35
2023/04/23 01:34:55;;;;;;;3.60;2.17;;;;;;;;;;5076782;28;20212;-35
2023/04/23 01:37:22;;;;;;;5.85;2.65;;;;;;;;;;5042403;28;20256;-35
2023/04/23 01:39:50;;;;;;;4.07;2.20;;;;;;;;;;5076185;28;20214;-35
2023/04/23 01:42:17;;;;;;;3.13;2.10;;;;;;;;;;5076155;28;20227;-35
2023/04/23 01:44:45;;;;;;;3.28;2.10;;;;;;;;;;5058880;28;20199;-35
2023/04/23 01:47:12;;;;;;;3.85;2.67;;;;;;;;;;5076087;28;20209;-35
2023/04/23 01:49:39;;;;;;;6.85;2.72;;;;;;;;;;5058549;28;20737;-35
2023/04/23 01:52:07;;;;;;;5.38;2.67;;;;;;;;;;5041820;28;20210;-35
2023/04/23 01:54:34;;;;;;;7.00;3.17;;;;;;;;;;5058138;28;20195;-35
2023/04/23 01:57:01;;;;;;;6.95;3.58;;;;;;;;;;5057131;28;20200;-35
2023/04/23 01:59:29;;;;;;;15.30;7.97;;;;;;;;;;5058647;28;20207;-35
2023/04/23 02:01:55;;;;;;;30.10;11.88;;;;;;;;;;5076254;28;20203;-35
2023/04/23 02:04:23;;;;;;;173.75;65.93;;;;;;;;;;5057990;28;20248;-35
2023/04/23 02:06:50;;;;;;;77.88;34.88;;;;;;;;;;5076104;28;20206;-35
2023/04/23 02:09:18;;;;;;;84.40;23.95;;;;;;;;;;5057869;28;20667;-35
2023/04/23 02:11:45;;;;;;;49.63;13.52;;;;;;;;;;5058393;28;20210;-35
2023/04/23 02:14:13;;;;;;;6.88;3.55;;;;;;;;;;5075966;28;20227;-35
2023/04/23 02:16:40;;;;;;;4.78;2.95;;;;;;;;;;5075489;28;20235;-35
2023/04/23 02:19:07;;;;;;;7.18;3.55;;;;;;;;;;5075526;28;20219;-35
2023/04/23 02:21:34;;;;;;;15.68;5.28;;;;;;;;;;5057917;28;20310;-35
2023/04/23 02:24:04;;;;;;;12.25;4.80;;;;;;;;;;5057614;28;20227;-35
2023/04/23 02:26:31;;;;;;;43.30;15.07;;;;;;;;;;5075445;28;20246;-35
2023/04/23 02:28:58;;;;;;;26.92;11.10;;;;;;;;;;5075707;28;20237;-35
2023/04/23 02:31:25;;;;;;;9.05;5.30;;;;;;;;;;5057416;28;20656;-35
2023/04/23 02:33:54;;;;;;;40.83;11.10;;;;;;;;;;5075218;28;20214;-36
2023/04/23 02:36:21;;;;;;;76.78;16.50;;;;;;;;;;5058102;28;20195;-35
2023/04/23 02:38:49;;;;;;;62.65;13.85;;;;;;;;;;5057423;28;20206;-35
2023/04/23 02:41:17;;;;;;;40.45;8.48;;;;;;;;;;5075218;28;20210;-36
2023/04/23 02:43:44;;;;;;;25.83;7.50;;;;;;;;;;5075267;28;20285;-35
2023/04/23 02:46:11;;;;;;;19.88;5.55;;;;;;;;;;5057114;28;20203;-35
2023/04/23 02:48:40;;;;;;;9.48;4.40;;;;;;;;;;5074993;28;20199;-35
2023/04/23 02:51:09;;;;;;;9.27;4.15;;;;;;;;;;5074712;28;20214;-35
2023/04/23 02:53:36;;;;;;;10.98;5.13;;;;;;;;;;5057239;28;20206;-35
2023/04/23 02:56:03;;;;;;;19.65;6.00;;;;;;;;;;5074882;28;20268;-35
2023/04/23 02:58:31;;;;;;;9.27;4.30;;;;;;;;;;5057131;28;20231;-35
2023/04/23 03:01:00;;;;;;;26.02;6.50;;;;;;;;;;5056713;28;20286;-35
2023/04/23 03:03:30;;;;;;;15.13;4.97;;;;;;;;;;5056948;28;20240;-35
2023/04/23 03:06:01;;;;;;;6.03;3.17;;;;;;;;;;5056964;28;20195;-35
2023/04/23 03:08:28;;;;;;;4.57;2.47;;;;;;;;;;5056495;28;20215;-35
2023/04/23 03:10:55;;;;;;;5.57;2.78;;;;;;;;;;5074507;28;20653;-35
2023/04/23 03:13:24;;;;;;;5.57;3.80;;;;;;;;;;5057045;28;20212;-35
2023/04/23 03:15:52;;;;;;;5.80;3.47;;;;;;;;;;5056575;28;20207;-35
2023/04/23 03:18:20;;;;;;;3.63;2.63;;;;;;;;;;5074537;28;20214;-35
2023/04/23 03:20:50;;;;;;;5.45;3.47;;;;;;;;;;5056427;28;20269;-35
2023/04/23 03:23:18;;;;;;;4.30;2.75;;;;;;;;;;5074304;28;20580;-35
2023/04/23 03:25:46;;;;;;;5.82;2.80;;;;;;;;;;5056459;28;20204;-35
2023/04/23 03:28:13;;;;;;;3.97;2.55;;;;;;;;;;5056425;28;20553;-35
2023/04/23 03:30:41;;;;;;;10.88;4.22;;;;;;;;;;5071787;28;20543;-36
2023/04/23 03:33:09;;;;;;;16.85;5.03;;;;;;;;;;5045870;28;20215;-35
2023/04/23 03:35:36;;;;;;;10.77;4.22;;;;;;;;;;5036485;28;20294;-35
2023/04/23 03:38:08;;;;;;;4.68;2.80;;;;;;;;;;5036352;28;20223;-36
2023/04/23 03:40:36;;;;;;;4.90;2.60;;;;;;;;;;5036074;28;20215;-35
2023/04/23 03:43:05;;;;;;;5.53;2.88;;;;;;;;;;5036313;28;20285;-35
2023/04/23 03:46:02;;;;;;;6.22;3.80;;;;;;;;;;5040354;28;20553;-35
2023/04/23 03:48:32;;;;;;;5.43;2.78;;;;;;;;;;5036571;28;20253;-35
2023/04/23 03:51:04;;;;;;;3.72;2.30;;;;;;;;;;5036150;28;20185;-35
2023/04/23 03:53:46;;;;;;;5.60;2.72;;;;;;;;;;5036694;28;20196;-35
2023/04/23 03:56:28;;;;;;;5.00;2.40;;;;;;;;;;5053740;28;20645;-36
2023/04/23 03:59:14;;;;;;;4.85;2.40;;;;;;;;;;5053703;28;20649;-35
2023/04/23 04:01:42;;;;;;;10.95;4.85;;;;;;;;;;5035884;28;20656;-36
2023/04/23 04:04:10;;;;;;;41.53;13.35;;;;;;;;;;5036119;28;20262;-35
2023/04/23 04:06:37;;;;;;;4.78;2.95;;;;;;;;;;5054093;28;20265;-35
2023/04/23 04:09:06;;;;;;;5.93;3.00;;;;;;;;;;5053486;28;20734;-36
2023/04/23 04:11:34;;;;;;;3.97;2.47;;;;;;;;;;5053838;28;20651;-36
2023/04/23 04:14:01;;;;;;;8.88;4.47;;;;;;;;;;5053689;28;20218;-36
2023/04/23 04:16:28;;;;;;;2.78;2.15;;;;;;;;;;5053842;28;20210;-36
2023/04/23 04:18:56;;;;;;;9.63;3.78;;;;;;;;;;5053084;28;20262;-35
2023/04/23 04:21:23;;;;;;;5.82;2.97;;;;;;;;;;5053906;28;20305;-35
2023/04/23 04:23:50;;;;;;;8.73;2.70;;;;;;;;;;5053589;28;20236;-36
2023/04/23 04:26:17;;;;;;;3.80;2.28;;;;;;;;;;5053256;28;20209;-36
2023/04/23 04:28:45;;;;;;;4.13;2.33;;;;;;;;;;5003138;28;20273;-36
2023/04/23 04:31:14;;;;;;;7.75;2.63;;;;;;;;;;5053279;28;20207;-35
2023/04/23 04:33:42;;;;;;;4.85;2.30;;;;;;;;;;5036330;28;20200;-36
2023/04/23 04:36:09;;;;;;;3.83;2.15;;;;;;;;;;5053490;28;20325;-36
2023/04/23 04:38:36;;;;;;;4.13;2.03;;;;;;;;;;5053126;28;20203;-36
2023/04/23 04:41:04;;;;;;;2.90;2.10;;;;;;;;;;5053481;28;20215;-35
2023/04/23 04:43:31;;;;;;;5.63;2.53;;;;;;;;;;5035768;28;20286;-36
2023/04/23 04:45:59;;;;;;;5.38;2.70;;;;;;;;;;5053385;28;20299;-35
2023/04/23 04:48:27;;;;;;;5.90;2.28;;;;;;;;;;5053067;28;20208;-36
2023/04/23 04:50:54;;;;;;;5.03;2.50;;;;;;;;;;5053521;28;20619;-35
2023/04/23 04:53:21;;;;;;;6.80;3.15;;;;;;;;;;5053480;28;20219;-39
2023/04/23 04:55:48;;;;;;;6.22;3.08;;;;;;;;;;5066499;28;20711;-36
2023/04/23 04:58:16;;;;;;;4.93;2.58;;;;;;;;;;5062076;28;20199;-36
2023/04/23 05:00:43;;;;;;;4.43;2.53;;;;;;;;;;5073451;28;20219;-36
2023/04/23 05:03:11;;;;;;;4.82;2.17;;;;;;;;;;5072748;28;20199;-36
2023/04/23 05:05:41;;;;;;;5.93;2.70;;;;;;;;;;5073273;28;20252;-36
2023/04/23 05:08:08;;;;;;;3.00;2.20;;;;;;;;;;5053951;28;20222;-36
2023/04/23 05:10:36;;;;;;;3.58;2.45;;;;;;;;;;5073343;28;20199;-35
2023/04/23 05:13:03;;;;;;;4.45;2.67;;;;;;;;;;5073283;28;20578;-35
2023/04/23 05:15:30;;;;;;;5.20;3.03;;;;;;;;;;5073230;28;20200;-35
2023/04/23 05:17:57;;;;;;;10.05;4.60;;;;;;;;;;5073138;28;20199;-36
2023/04/23 05:20:25;;;;;;;19.60;5.65;;;;;;;;;;5073038;28;20232;-35
2023/04/23 05:22:52;;;;;;;11.63;4.13;;;;;;;;;;5072751;28;20207;-35
2023/04/23 05:25:19;;;;;;;9.95;4.40;;;;;;;;;;5072628;28;20253;-36
2023/04/23 05:27:46;;;;;;;9.52;4.05;;;;;;;;;;5073036;28;20195;-36
2023/04/23 05:30:14;;;;;;;12.48;5.18;;;;;;;;;;5073383;28;20245;-36
2023/04/23 05:32:41;;;;;;;8.30;4.10;;;;;;;;;;5076722;28;20207;-36
2023/04/23 05:35:08;;;;;;;6.80;4.05;;;;;;;;;;5076681;28;20242;-36
2023/04/23 05:37:36;;;;;;;4.80;3.17;;;;;;;;;;5076457;28;20648;-36
2023/04/23 05:40:06;;;;;;;6.50;2.72;;;;;;;;;;5069657;28;20199;-36
2023/04/23 05:42:34;;;;;;;4.47;3.20;;;;;;;;;;5056579;28;20200;-36
2023/04/23 05:45:02;;;;;;;7.30;4.70;;;;;;;;;;5056458;28;20228;-37
2023/04/23 05:47:29;;;;;;;32.72;17.65;;;;;;;;;;5073373;28;20221;-37
2023/04/23 05:49:57;;;;;;;43.70;19.25;;;;;;;;;;5080177;28;20218;-37
2023/04/23 05:52:24;;;;;;;26.23;13.02;;;;;;;;;;5082338;28;20248;-36
2023/04/23 05:54:51;;;;;;;63.47;16.98;;;;;;;;;;5085123;28;20222;-36
2023/04/23 05:57:18;;;;;;;91.78;19.48;;;;;;;;;;5074806;28;20214;-36
2023/04/23 05:59:45;;;;;;;74.80;20.63;;;;;;;;;;5081301;28;20281;-36
2023/04/23 06:02:13;;;;;;;29.48;8.82;;;;;;;;;;5082402;28;20538;-36
2023/04/23 06:04:40;;;;;;;16.55;6.38;;;;;;;;;;5061772;28;20268;-36
2023/04/23 06:07:08;;;;;;;11.40;4.72;;;;;;;;;;5085921;28;20199;-36
2023/04/23 06:09:35;;;;;;;6.57;3.42;;;;;;;;;;5079809;28;20210;-36
2023/04/23 06:12:02;;;;;;;14.90;6.13;;;;;;;;;;5086659;28;20191;-36
2023/04/23 06:14:29;;;;;;;6.80;3.70;;;;;;;;;;5063702;28;21045;-36
2023/04/23 06:16:56;;;;;;;21.75;9.02;;;;;;;;;;5064870;28;20224;-36
2023/04/23 06:19:25;;;;;;;3.40;2.40;;;;;;;;;;5054877;28;20700;-36
2023/04/23 06:21:52;;;;;;;4.70;2.42;;;;;;;;;;5088237;28;20583;-36
2023/04/23 06:24:19;;;;;;;10.48;5.38;;;;;;;;;;5082395;28;20235;-37
2023/04/23 06:26:47;;;;;;;17.73;7.45;;;;;;;;;;5063200;28;20577;-36
2023/04/23 06:29:18;;;;;;;13.13;6.68;;;;;;;;;;5060481;28;20223;-36
2023/04/23 06:32:11;;;;;;;7.25;3.42;;;;;;;;;;5052874;28;21837;-35
2023/04/23 06:34:38;;;;;;;9.63;4.13;;;;;;;;;;5082505;28;20686;-36
2023/04/23 06:37:25;;;;;;;4.93;2.72;;;;;;;;;;5085065;28;20753;-36
2023/04/23 06:39:55;;;;;;;5.93;2.70;;;;;;;;;;5084266;28;20219;-38
2023/04/23 06:42:22;;;;;;;6.03;3.53;;;;;;;;;;5075085;28;20219;-37
2023/04/23 06:45:07;;;;;;;5.32;2.85;;;;;;;;;;5066440;28;20237;-37
2023/04/23 06:47:34;;;;;;;5.82;3.22;;;;;;;;;;5074103;28;20223;-37
2023/04/23 06:50:02;;;;;;;4.88;2.55;;;;;;;;;;5073771;28;20226;-38
2023/04/23 06:52:29;;;;;;;5.35;2.78;;;;;;;;;;5077730;28;20578;-37
2023/04/23 06:54:56;;;;;;;4.50;2.70;;;;;;;;;;5083061;28;20234;-38
2023/04/23 06:57:24;;;;;;;4.82;3.00;;;;;;;;;;5060725;28;20224;-36
2023/04/23 06:59:51;;;;;;;5.07;2.72;;;;;;;;;;5081849;28;20218;-38
2023/04/23 07:02:21;;;;;;;4.75;2.65;;;;;;;;;;5071365;28;20214;-37
2023/04/23 07:04:48;;;;;;;6.18;2.80;;;;;;;;;;5094625;28;20296;-36
2023/04/23 07:07:15;;;;;;;5.15;2.83;;;;;;;;;;5094477;28;20287;-35
2023/04/23 07:09:43;;;;;;;5.82;2.83;;;;;;;;;;5076577;28;20219;-37
2023/04/23 07:12:10;;;;;;;4.60;2.50;;;;;;;;;;5072344;28;20212;-38
2023/04/23 07:14:37;;;;;;;4.57;2.88;;;;;;;;;;5059420;28;20223;-37
2023/04/23 07:17:05;;;;;;;2.63;2.13;;;;;;;;;;5082616;28;20586;-36
2023/04/23 07:19:32;;;;;;;7.50;3.47;;;;;;;;;;5076447;28;20764;-37
2023/04/23 07:22:00;;;;;;;7.47;2.80;;;;;;;;;;5079998;28;20246;-38
2023/04/23 07:24:27;;;;;;;2.92;2.22;;;;;;;;;;5081590;28;20230;-37
2023/04/23 07:26:55;;;;;;;3.65;2.30;;;;;;;;;;5076512;28;20272;-38
2023/04/23 07:29:23;;;;;;;3.78;2.67;;;;;;;;;;5082070;28;20697;-36
2023/04/23 07:31:50;;;;;;;5.40;2.88;;;;;;;;;;5073355;28;20235;-36
2023/04/23 07:34:18;;;;;;;4.80;2.45;;;;;;;;;;5074246;28;20199;-36
2023/04/23 07:36:45;;;;;;;4.82;2.55;;;;;;;;;;5069223;28;20208;-36
2023/04/23 07:39:12;;;;;;;4.30;2.38;;;;;;;;;;5054149;28;20618;-36
2023/04/23 07:41:39;;;;;;;4.97;2.75;;;;;;;;;;5054071;28;20208;-36
2023/04/23 07:44:06;;;;;;;3.72;2.10;;;;;;;;;;5036499;28;20224;-36
2023/04/23 07:46:34;;;;;;;3.63;2.10;;;;;;;;;;5054154;28;20199;-37
2023/04/23 07:49:01;;;;;;;3.75;2.38;;;;;;;;;;5060191;28;20210;-36
2023/04/23 07:51:30;;;;;;;3.25;2.00;;;;;;;;;;5058616;28;20215;-36
2023/04/23 07:53:57;;;;;;;3.15;1.80;;;;;;;;;;5054130;28;20200;-36
2023/04/23 07:56:25;;;;;;;2.65;1.83;;;;;;;;;;5053785;28;20690;-36
2023/04/23 07:58:52;;;;;;;2.40;1.73;;;;;;;;;;5053950;28;20211;-36
2023/04/23 08:01:20;;;;;;;2.42;1.42;;;;;;;;;;5053624;28;20230;-36
2023/04/23 08:03:47;;;;;;;2.60;1.70;;;;;;;;;;5053641;28;20728;-36
2023/04/23 08:06:17;;;;;;;4.40;1.75;;;;;;;;;;5053552;28;20730;-36
2023/04/23 08:08:44;;;;;;;2.47;1.80;;;;;;;;;;5053795;28;20200;-36
2023/04/23 08:11:11;;;;;;;2.25;1.50;;;;;;;;;;5053499;28;20200;-36
2023/04/23 08:13:38;;;;;;;2.15;1.48;;;;;;;;;;5041366;28;20211;-36
2023/04/23 08:16:05;;;;;;;4.72;1.50;;;;;;;;;;5070101;28;20215;-36
2023/04/23 08:18:32;;;;;;;2.40;1.30;;;;;;;;;;5073639;28;20202;-36
2023/04/23 08:21:00;;;;;;;3.47;1.70;;;;;;;;;;5055681;28;20597;-36
2023/04/23 08:23:27;;;;;;;2.03;1.38;;;;;;;;;;5073673;28;20203;-36
2023/04/23 08:25:54;;;;;;;3.60;1.45;;;;;;;;;;5073248;28;20803;-35
2023/04/23 08:28:21;;;;;;;1.42;1.02;;;;;;;;;;5073721;28;20196;-36
2023/04/23 08:30:49;;;;;;;1.58;1.20;;;;;;;;;;5073672;28;20206;-36
2023/04/23 08:33:16;;;;;;;1.63;1.33;;;;;;;;;;5073634;28;20206;-36
2023/04/23 08:35:43;;;;;;;1.95;1.40;;;;;;;;;;5073270;28;20562;-37
2023/04/23 08:38:10;;;;;;;2.25;1.30;;;;;;;;;;5073169;28;20199;-36
2023/04/23 08:40:38;;;;;;;1.90;1.05;;;;;;;;;;5073205;28;20663;-36
2023/04/23 08:43:14;;;;;;;2.35;1.30;;;;;;;;;;5055452;28;20199;-36
2023/04/23 08:45:45;;;;;;;1.65;1.25;;;;;;;;;;5073169;28;20281;-35
2023/04/23 08:48:13;;;;;;;2.75;1.23;;;;;;;;;;5070266;28;20199;-36
2023/04/23 08:50:42;;;;;;;1.73;1.05;;;;;;;;;;5068532;28;20200;-36
2023/04/23 08:53:09;;;;;;;1.02;0.85;;;;;;;;;;5053876;28;20207;-36
2023/04/23 08:55:36;;;;;;;1.33;1.00;;;;;;;;;;5035853;28;20212;-36
2023/04/23 08:58:05;;;;;;;1.40;0.88;;;;;;;;;;5035421;28;20222;-37
2023/04/23 09:00:35;;;;;;;1.35;1.10;;;;;;;;;;5035991;28;20238;-36
2023/04/23 09:03:02;;;;;;;1.45;1.10;;;;;;;;;;5053359;28;20231;-36
2023/04/23 09:05:30;;;;;;;3.15;1.00;;;;;;;;;;5053744;28;20228;-37
2023/04/23 09:07:58;;;;;;;1.77;1.10;;;;;;;;;;5048348;28;20207;-37
2023/04/23 09:10:26;;;;;;;1.25;0.77;;;;;;;;;;5068316;28;20231;-38
2023/04/23 09:12:53;;;;;;;1.15;0.80;;;;;;;;;;5083626;28;20215;-36
2023/04/23 09:15:21;;;;;;;1.35;0.90;;;;;;;;;;5081173;28;20223;-36
2023/04/23 09:17:48;;;;;;;2.17;1.10;;;;;;;;;;5084118;28;20684;-38
2023/04/23 09:20:16;;;;;;;1.42;0.82;;;;;;;;;;5084445;28;20234;-38
2023/04/23 09:22:47;;;;;;;1.70;1.13;;;;;;;;;;5082537;28;20235;-37
2023/04/23 09:25:17;;;;;;;1.20;1.10;;;;;;;;;;5067222;28;20242;-37
2023/04/23 09:27:45;;;;;;;1.77;0.73;;;;;;;;;;5095607;28;20695;-37
2023/04/23 09:30:13;;;;;;;1.85;1.00;;;;;;;;;;5095557;28;20223;-36
2023/04/23 09:32:42;;;;;;;2.28;1.05;;;;;;;;;;5095839;28;20235;-36
2023/04/23 09:35:14;;;;;;;1.20;0.95;;;;;;;;;;5082101;28;20218;-36
2023/04/23 09:37:43;;;;;;;0.80;0.63;;;;;;;;;;5064736;28;20223;-36
2023/04/23 09:40:12;;;;;;;1.92;0.73;;;;;;;;;;5053480;28;20701;-36
2023/04/23 09:42:39;;;;;;;1.25;0.90;;;;;;;;;;5055683;28;20238;-37
2023/04/23 09:45:10;;;;;;;1.65;0.70;;;;;;;;;;5055225;28;20235;-37
2023/04/23 09:47:38;;;;;;;0.80;0.80;;;;;;;;;;5055900;28;20234;-38
2023/04/23 09:50:09;;;;;;;0.95;0.70;;;;;;;;;;5055739;28;20220;-36
2023/04/23 09:52:40;;;;;;;2.30;1.15;;;;;;;;;;5060695;28;20223;-38
2023/04/23 09:55:08;;;;;;;1.08;0.77;;;;;;;;;;5051240;28;20219;-36
2023/04/23 09:57:40;;;;;;;1.05;0.73;;;;;;;;;;5074936;28;20284;-36
2023/04/23 10:00:18;;;;;;;1.20;0.88;;;;;;;;;;5072170;28;20211;-36
2023/04/23 10:02:48;;;;;;;1.83;0.90;;;;;;;;;;5075445;28;20223;-36
2023/04/23 10:05:17;;;;;;;1.25;0.70;;;;;;;;;;5057951;28;20235;-36
2023/04/23 10:07:51;;;;;;;1.10;0.70;;;;;;;;;;5084630;28;20644;-36
2023/04/23 10:10:19;;;;;;;1.05;0.80;;;;;;;;;;5082066;28;20219;-37
2023/04/23 10:12:46;;;;;;;1.27;0.85;;;;;;;;;;5079769;28;20217;-36
2023/04/23 10:15:25;;;;;;;1.40;0.82;;;;;;;;;;5088371;28;20215;-37
2023/04/23 10:17:54;;;;;;;1.42;0.98;;;;;;;;;;5086936;28;20237;-38
2023/04/23 10:20:22;;;;;;;1.00;0.60;;;;;;;;;;5082894;28;20231;-37
2023/04/23 10:22:52;;;;;;;1.90;1.20;;;;;;;;;;5078169;28;20211;-36
2023/04/23 10:25:20;;;;;;;1.58;1.05;;;;;;;;;;5080672;28;20279;-36
2023/04/23 10:27:48;;;;;;;1.42;0.90;;;;;;;;;;5061052;28;20216;-36
2023/04/23 10:30:21;;;;;;;1.30;0.70;;;;;;;;;;5077801;28;20219;-35
2023/04/23 10:32:49;;;;;;;1.80;1.02;;;;;;;;;;5072678;28;20224;-36
2023/04/23 10:35:17;;;;;;;1.40;0.73;;;;;;;;;;5054651;28;20220;-36
2023/04/23 10:37:46;;;;;;;1.77;1.08;;;;;;;;;;5078677;28;20567;-36
2023/04/23 10:40:18;;;;;;;1.40;1.00;;;;;;;;;;5059002;28;20210;-37
2023/04/23 10:42:45;;;;;;;1.42;0.85;;;;;;;;;;5081173;28;20217;-37
2023/04/23 10:45:13;;;;;;;1.58;0.98;;;;;;;;;;5075499;28;20302;-37
2023/04/23 10:47:53;;;;;;;1.65;1.00;;;;;;;;;;5077594;28;20230;-36
2023/04/23 10:50:21;;;;;;;1.15;0.80;;;;;;;;;;5079982;28;20226;-36
2023/04/23 10:52:53;;;;;;;1.40;1.00;;;;;;;;;;5083631;28;20733;-36
2023/04/23 10:55:25;;;;;;;1.77;1.00;;;;;;;;;;5062098;28;20227;-37
2023/04/23 10:58:06;;;;;;;0.75;0.60;;;;;;;;;;5078053;28;20770;-37
2023/04/23 11:00:42;;;;;;;1.70;0.93;;;;;;;;;;5073734;28;20744;-36
2023/04/23 11:03:38;;;;;;;1.50;1.10;;;;;;;;;;5080583;28;20211;-37
2023/04/23 11:06:18;;;;;;;1.38;0.85;;;;;;;;;;5060117;28;20231;-36
2023/04/23 11:08:55;;;;;;;1.02;0.73;;;;;;;;;;5082268;28;20210;-37
2023/04/23 11:11:39;;;;;;;2.05;1.20;;;;;;;;;;5064052;28;20215;-36
2023/04/23 11:14:15;;;;;;;2.53;1.15;;;;;;;;;;5072577;28;20199;-36
2023/04/23 11:16:42;;;;;;;1.30;1.00;;;;;;;;;;5095000;28;20198;-36
2023/04/23 11:19:14;;;;;;;4.18;1.13;;;;;;;;;;5085223;28;20191;-36
2023/04/23 11:22:23;;;;;;;1.48;0.80;;;;;;;;;;5083199;28;20572;-36
2023/04/23 11:24:50;;;;;;;1.77;0.98;;;;;;;;;;5084723;28;20657;-36
2023/04/23 11:27:18;;;;;;;2.75;1.08;;;;;;;;;;5065969;28;20241;-36
2023/04/23 11:29:46;;;;;;;2.72;1.10;;;;;;;;;;5083248;28;20528;-36
2023/04/23 11:32:15;;;;;;;1.90;1.10;;;;;;;;;;5079600;28;20202;-37
2023/04/23 11:34:48;;;;;;;2.15;1.20;;;;;;;;;;5063780;28;20253;-37
2023/04/23 11:37:17;;;;;;;2.13;1.23;;;;;;;;;;5091521;28;20195;-36
2023/04/23 11:39:46;;;;;;;1.38;1.10;;;;;;;;;;5094344;28;20665;-36
2023/04/23 11:42:14;;;;;;;1.58;0.80;;;;;;;;;;5093623;28;20191;-36
2023/04/23 11:44:44;;;;;;;1.38;1.17;;;;;;;;;;5064101;28;20195;-37
2023/04/23 11:47:13;;;;;;;1.20;1.10;;;;;;;;;;5083726;28;20227;-36
2023/04/23 11:49:41;;;;;;;2.72;1.30;;;;;;;;;;5088183;28;20587;-36
2023/04/23 11:52:10;;;;;;;3.60;1.15;;;;;;;;;;5077764;28;20200;-36
2023/04/23 11:54:41;;;;;;;1.85;1.23;;;;;;;;;;5078182;28;20187;-37
2023/04/23 11:57:09;;;;;;;2.40;1.10;;;;;;;;;;5066318;28;20791;-36
2023/04/23 11:59:36;;;;;;;2.08;1.05;;;;;;;;;;5055031;28;20200;-36
2023/04/23 12:02:03;;;;;;;2.55;1.20;;;;;;;;;;5058100;28;20644;-36
2023/04/23 12:04:31;;;;;;;1.45;0.93;;;;;;;;;;5068842;28;20215;-36
2023/04/23 12:06:59;;;;;;;1.73;1.15;;;;;;;;;;5056031;28;20227;-36
2023/04/23 12:09:28;;;;;;;2.22;1.20;;;;;;;;;;5053614;28;20676;-36
2023/04/23 12:11:57;;;;;;;1.27;1.05;;;;;;;;;;5036191;28;20208;-36
2023/04/23 12:14:29;;;;;;;1.92;1.00;;;;;;;;;;5053786;28;20203;-36
2023/04/23 12:16:57;;;;;;;1.52;1.00;;;;;;;;;;5071017;28;20214;-36
2023/04/23 12:19:29;;;;;;;2.40;1.05;;;;;;;;;;5073372;28;20210;-36
2023/04/23 12:21:57;;;;;;;1.45;1.05;;;;;;;;;;5074047;28;20227;-36
2023/04/23 12:24:26;;;;;;;2.53;1.25;;;;;;;;;;5073415;28;20614;-36
2023/04/23 12:26:57;;;;;;;1.98;1.10;;;;;;;;;;5056562;28;20235;-36
2023/04/23 12:29:24;;;;;;;2.40;1.08;;;;;;;;;;5068859;28;20192;-37
2023/04/23 12:31:52;;;;;;;1.33;0.98;;;;;;;;;;5085307;28;20206;-36
2023/04/23 12:34:20;;;;;;;2.38;1.00;;;;;;;;;;5073871;28;20264;-37
2023/04/23 12:36:50;;;;;;;1.65;0.90;;;;;;;;;;5079803;28;20226;-39
2023/04/23 12:39:35;;;;;;;1.83;1.10;;;;;;;;;;5073700;28;20564;-37
2023/04/23 12:42:05;;;;;;;1.73;1.10;;;;;;;;;;5076096;28;20227;-37
2023/04/23 12:44:36;;;;;;;1.83;1.30;;;;;;;;;;5068273;28;20573;-38
2023/04/23 12:47:09;;;;;;;2.35;1.23;;;;;;;;;;5082618;28;20606;-37
2023/04/23 12:49:38;;;;;;;1.20;1.00;;;;;;;;;;5075660;28;20214;-37
2023/04/23 12:52:07;;;;;;;1.40;1.13;;;;;;;;;;5075932;28;20264;-37
2023/04/23 12:54:37;;;;;;;2.33;1.13;;;;;;;;;;5073821;28;20610;-36
2023/04/23 12:57:07;;;;;;;1.50;0.85;;;;;;;;;;5071332;28;20220;-36
2023/04/23 12:59:34;;;;;;;2.05;1.08;;;;;;;;;;5054196;28;20701;-37
2023/04/23 13:02:02;;;;;;;1.20;1.00;;;;;;;;;;5070839;28;20434;-38
2023/04/23 13:04:31;;;;;;;1.58;1.13;;;;;;;;;;5071936;28;20368;-38
2023/04/23 13:06:59;;;;;;;2.83;1.20;;;;;;;;;;5072366;28;20284;-37
2023/04/23 13:09:27;;;;;;;1.73;1.20;;;;;;;;;;5075321;28;20661;-37
2023/04/23 13:11:54;;;;;;;1.23;1.13;;;;;;;;;;5080736;28;20214;-36
2023/04/23 13:14:21;;;;;;;1.42;1.17;;;;;;;;;;5089554;28;20219;-36
2023/04/23 13:16:49;;;;;;;1.75;1.13;;;;;;;;;;5090283;28;20222;-38
2023/04/23 13:19:16;;;;;;;3.53;1.20;;;;;;;;;;5082292;28;20207;-37
2023/04/23 13:21:44;;;;;;;1.55;1.02;;;;;;;;;;5078852;28;20230;-38
2023/04/23 13:24:11;;;;;;;1.50;1.13;;;;;;;;;;5056884;28;20220;-36
2023/04/23 13:26:38;;;;;;;2.33;1.27;;;;;;;;;;5079007;28;20242;-38
2023/04/23 13:29:05;;;;;;;2.35;1.48;;;;;;;;;;5081493;28;20215;-38
2023/04/23 13:31:33;;;;;;;1.35;1.10;;;;;;;;;;5075349;28;20280;-38
2023/04/23 13:34:01;;;;;;;1.77;1.10;;;;;;;;;;5082906;28;20218;-38
2023/04/23 13:36:29;;;;;;;2.60;1.50;;;;;;;;;;5084581;28;20262;-37
2023/04/23 13:38:56;;;;;;;2.70;1.30;;;;;;;;;;5064487;28;20227;-37
2023/04/23 13:41:24;;;;;;;2.60;1.42;;;;;;;;;;5072306;28;20219;-37
2023/04/23 13:43:51;;;;;;;1.35;1.08;;;;;;;;;;5069972;28;20223;-37
2023/04/23 13:46:19;;;;;;;2.15;1.10;;;;;;;;;;5078223;28;20234;-36
2023/04/23 13:48:46;;;;;;;1.63;1.08;;;;;;;;;;5080923;28;20230;-37
2023/04/23 13:51:13;;;;;;;3.75;1.50;;;;;;;;;;5092598;28;20715;-36
2023/04/23 13:54:00;;;;;;;1.95;1.30;;;;;;;;;;5095581;28;20222;-36
2023/04/23 13:56:29;;;;;;;1.90;1.20;;;;;;;;;;5094473;28;20634;-37
2023/04/23 13:59:00;;;;;;;2.00;1.38;;;;;;;;;;5072152;28;20738;-37
2023/04/23 14:01:49;;;;;;;1.75;1.40;;;;;;;;;;5072706;28;20700;-37
2023/04/23 14:04:17;;;;;;;2.00;1.20;;;;;;;;;;5077820;28;20223;-37
2023/04/23 14:06:44;;;;;;;2.55;1.38;;;;;;;;;;5079140;28;20288;-37
2023/04/23 14:09:11;;;;;;;2.35;1.50;;;;;;;;;;5075216;28;20242;-37
2023/04/23 14:11:40;;;;;;;1.75;1.25;;;;;;;;;;5075327;28;20245;-37
2023/04/23 14:14:07;;;;;;;1.40;1.10;;;;;;;;;;5075231;28;20224;-36
2023/04/23 14:16:35;;;;;;;2.40;1.40;;;;;;;;;;5074114;28;20711;-36
2023/04/23 14:19:02;;;;;;;3.00;1.55;;;;;;;;;;5088064;28;20361;-37
2023/04/23 14:21:29;;;;;;;2.95;1.48;;;;;;;;;;5095376;28;20261;-37
2023/04/23 14:24:13;;;;;;;2.03;1.27;;;;;;;;;;5095081;28;20633;-37
2023/04/23 14:26:43;;;;;;;2.05;1.50;;;;;;;;;;5072548;28;20227;-37
2023/04/23 14:29:23;;;;;;;2.50;1.42;;;;;;;;;;5077121;28;20221;-36
2023/04/23 14:31:51;;;;;;;1.60;1.20;;;;;;;;;;5063673;28;20231;-36
2023/04/23 14:34:18;;;;;;;2.63;1.58;;;;;;;;;;5064348;28;20215;-37
2023/04/23 14:36:47;;;;;;;2.40;1.42;;;;;;;;;;5062343;28;20223;-38
2023/04/23 14:39:15;;;;;;;1.58;1.20;;;;;;;;;;5062607;28;20656;-37
2023/04/23 14:41:43;;;;;;;1.85;1.30;;;;;;;;;;5080924;28;20219;-36
2023/04/23 14:44:10;;;;;;;1.75;1.35;;;;;;;;;;5085023;28;20214;-38
2023/04/23 14:46:38;;;;;;;4.40;1.33;;;;;;;;;;5072843;28;20235;-36
2023/04/23 14:49:05;;;;;;;2.13;1.33;;;;;;;;;;5088025;28;20226;-37
2023/04/23 14:51:32;;;;;;;2.33;1.38;;;;;;;;;;5094791;28;20262;-37